sensor_id;sensor_type;location;lat;lon;timestamp;P1;durP1;ratioP1;P2;durP2;ratioP2
54261;SDS011;40174;52.364;6.452;2022-12-11T00:00:07;35.17;;;10.30;;
54261;SDS011;40174;52.364;6.452;2022-12-11T00:02:37;33.67;;;9.02;;
54261;SDS011;40174;52.364;6.452;2022-12-11T00:05:05;37.90;;;9.68;;
54261;SDS011;40174;52.364;6.452;2022-12-11T00:07:32;35.53;;;8.88;;
54261;SDS011;40174;52.364;6.452;2022-12-11T00:09:59;46.30;;;10.00;;
54261;SDS011;40174;52.364;6.452;2022-12-11T00:12:26;33.45;;;11.15;;
54261;SDS011;40174;52.364;6.452;2022-12-11T00:14:52;32.47;;;8.68;;
54261;SDS011;40174;52.364;6.452;2022-12-11T00:17:19;40.97;;;11.13;;
54261;SDS011;40174;52.364;6.452;2022-12-11T00:19:47;36.75;;;8.40;;
54261;SDS011;40174;52.364;6.452;2022-12-11T00:22:14;31.20;;;8.50;;
54261;SDS011;40174;52.364;6.452;2022-12-11T00:24:41;40.08;;;9.60;;
54261;SDS011;40174;52.364;6.452;2022-12-11T00:27:08;41.90;;;8.93;;
54261;SDS011;40174;52.364;6.452;2022-12-11T00:29:35;41.35;;;9.38;;
54261;SDS011;40174;52.364;6.452;2022-12-11T00:32:02;32.88;;;9.60;;
54261;SDS011;40174;52.364;6.452;2022-12-11T00:34:29;39.88;;;9.70;;
54261;SDS011;40174;52.364;6.452;2022-12-11T00:36:57;29.42;;;7.38;;
54261;SDS011;40174;52.364;6.452;2022-12-11T00:39:24;31.15;;;7.75;;
54261;SDS011;40174;52.364;6.452;2022-12-11T00:41:50;35.13;;;9.35;;
54261;SDS011;40174;52.364;6.452;2022-12-11T00:44:17;34.20;;;9.80;;
54261;SDS011;40174;52.364;6.452;2022-12-11T00:46:43;36.95;;;8.95;;
54261;SDS011;40174;52.364;6.452;2022-12-11T00:49:10;39.70;;;9.90;;
54261;SDS011;40174;52.364;6.452;2022-12-11T00:51:37;37.15;;;10.10;;
54261;SDS011;40174;52.364;6.452;2022-12-11T00:54:05;41.53;;;9.45;;
54261;SDS011;40174;52.364;6.452;2022-12-11T00:56:32;38.40;;;11.20;;
54261;SDS011;40174;52.364;6.452;2022-12-11T00:58:58;28.98;;;8.65;;
54261;SDS011;40174;52.364;6.452;2022-12-11T01:01:25;35.60;;;9.30;;
54261;SDS011;40174;52.364;6.452;2022-12-11T01:03:52;28.45;;;8.73;;
54261;SDS011;40174;52.364;6.452;2022-12-11T01:06:20;39.53;;;10.27;;
54261;SDS011;40174;52.364;6.452;2022-12-11T01:08:48;43.03;;;9.95;;
54261;SDS011;40174;52.364;6.452;2022-12-11T01:11:38;37.38;;;10.10;;
54261;SDS011;40174;52.364;6.452;2022-12-11T01:14:04;43.33;;;10.55;;
54261;SDS011;40174;52.364;6.452;2022-12-11T01:16:31;36.55;;;8.65;;
54261;SDS011;40174;52.364;6.452;2022-12-11T01:18:58;38.03;;;8.90;;
54261;SDS011;40174;52.364;6.452;2022-12-11T01:21:26;29.65;;;8.70;;
54261;SDS011;40174;52.364;6.452;2022-12-11T01:23:53;36.58;;;8.07;;
54261;SDS011;40174;52.364;6.452;2022-12-11T01:26:19;30.77;;;9.50;;
54261;SDS011;40174;52.364;6.452;2022-12-11T01:28:49;35.20;;;9.80;;
54261;SDS011;40174;52.364;6.452;2022-12-11T01:31:17;38.53;;;10.00;;
54261;SDS011;40174;52.364;6.452;2022-12-11T01:33:45;29.02;;;8.43;;
54261;SDS011;40174;52.364;6.452;2022-12-11T01:36:12;34.92;;;7.05;;
54261;SDS011;40174;52.364;6.452;2022-12-11T01:38:40;38.08;;;9.68;;
54261;SDS011;40174;52.364;6.452;2022-12-11T01:41:08;40.10;;;8.38;;
54261;SDS011;40174;52.364;6.452;2022-12-11T01:46:29;28.63;;;9.43;;
54261;SDS011;40174;52.364;6.452;2022-12-11T01:48:57;41.08;;;9.93;;
54261;SDS011;40174;52.364;6.452;2022-12-11T01:51:25;37.42;;;9.13;;
54261;SDS011;40174;52.364;6.452;2022-12-11T01:53:55;37.88;;;8.93;;
54261;SDS011;40174;52.364;6.452;2022-12-11T01:56:24;46.20;;;10.15;;
54261;SDS011;40174;52.364;6.452;2022-12-11T01:58:52;45.80;;;9.27;;
54261;SDS011;40174;52.364;6.452;2022-12-11T02:01:23;36.03;;;8.73;;
54261;SDS011;40174;52.364;6.452;2022-12-11T02:06:28;48.78;;;9.88;;
54261;SDS011;40174;52.364;6.452;2022-12-11T02:08:56;32.55;;;9.50;;
54261;SDS011;40174;52.364;6.452;2022-12-11T02:11:23;35.90;;;8.98;;
54261;SDS011;40174;52.364;6.452;2022-12-11T02:13:56;35.47;;;8.90;;
54261;SDS011;40174;52.364;6.452;2022-12-11T02:16:36;38.67;;;9.60;;
54261;SDS011;40174;52.364;6.452;2022-12-11T02:19:12;42.60;;;9.55;;
54261;SDS011;40174;52.364;6.452;2022-12-11T02:21:47;32.40;;;9.80;;
54261;SDS011;40174;52.364;6.452;2022-12-11T02:24:26;39.20;;;8.70;;
54261;SDS011;40174;52.364;6.452;2022-12-11T02:27:10;45.20;;;9.68;;
54261;SDS011;40174;52.364;6.452;2022-12-11T02:29:48;35.63;;;9.10;;
54261;SDS011;40174;52.364;6.452;2022-12-11T02:32:20;39.78;;;8.25;;
54261;SDS011;40174;52.364;6.452;2022-12-11T02:34:52;38.00;;;9.27;;
54261;SDS011;40174;52.364;6.452;2022-12-11T02:37:25;37.60;;;9.13;;
54261;SDS011;40174;52.364;6.452;2022-12-11T02:39:54;34.53;;;10.32;;
54261;SDS011;40174;52.364;6.452;2022-12-11T02:42:23;51.97;;;10.07;;
54261;SDS011;40174;52.364;6.452;2022-12-11T02:44:55;49.97;;;11.48;;
54261;SDS011;40174;52.364;6.452;2022-12-11T02:47:25;46.63;;;9.40;;
54261;SDS011;40174;52.364;6.452;2022-12-11T02:49:54;42.22;;;9.30;;
54261;SDS011;40174;52.364;6.452;2022-12-11T02:52:24;40.65;;;10.30;;
54261;SDS011;40174;52.364;6.452;2022-12-11T02:54:54;49.60;;;9.05;;
54261;SDS011;40174;52.364;6.452;2022-12-11T02:57:24;46.75;;;10.07;;
54261;SDS011;40174;52.364;6.452;2022-12-11T02:59:57;41.60;;;9.88;;
54261;SDS011;40174;52.364;6.452;2022-12-11T03:02:24;47.97;;;11.35;;
54261;SDS011;40174;52.364;6.452;2022-12-11T03:04:51;39.58;;;9.15;;
54261;SDS011;40174;52.364;6.452;2022-12-11T03:07:20;42.78;;;9.90;;
54261;SDS011;40174;52.364;6.452;2022-12-11T03:09:50;44.15;;;9.63;;
54261;SDS011;40174;52.364;6.452;2022-12-11T03:12:20;45.58;;;9.55;;
54261;SDS011;40174;52.364;6.452;2022-12-11T03:14:52;32.83;;;8.60;;
54261;SDS011;40174;52.364;6.452;2022-12-11T03:17:22;42.13;;;8.50;;
54261;SDS011;40174;52.364;6.452;2022-12-11T03:19:54;37.15;;;9.43;;
54261;SDS011;40174;52.364;6.452;2022-12-11T03:22:30;41.47;;;10.57;;
54261;SDS011;40174;52.364;6.452;2022-12-11T03:25:04;41.92;;;11.77;;
54261;SDS011;40174;52.364;6.452;2022-12-11T03:27:35;28.65;;;8.50;;
54261;SDS011;40174;52.364;6.452;2022-12-11T03:30:09;41.90;;;9.60;;
54261;SDS011;40174;52.364;6.452;2022-12-11T03:32:40;32.88;;;8.70;;
54261;SDS011;40174;52.364;6.452;2022-12-11T03:35:12;34.47;;;8.90;;
54261;SDS011;40174;52.364;6.452;2022-12-11T03:37:44;36.67;;;10.15;;
54261;SDS011;40174;52.364;6.452;2022-12-11T03:40:13;42.60;;;9.23;;
54261;SDS011;40174;52.364;6.452;2022-12-11T03:42:43;27.58;;;7.30;;
54261;SDS011;40174;52.364;6.452;2022-12-11T03:45:13;35.03;;;8.73;;
54261;SDS011;40174;52.364;6.452;2022-12-11T03:47:43;40.63;;;9.38;;
54261;SDS011;40174;52.364;6.452;2022-12-11T03:50:11;39.30;;;8.15;;
54261;SDS011;40174;52.364;6.452;2022-12-11T03:52:42;38.42;;;10.40;;
54261;SDS011;40174;52.364;6.452;2022-12-11T03:55:11;46.05;;;11.23;;
54261;SDS011;40174;52.364;6.452;2022-12-11T03:57:39;38.55;;;9.65;;
54261;SDS011;40174;52.364;6.452;2022-12-11T04:00:07;36.47;;;9.55;;
54261;SDS011;40174;52.364;6.452;2022-12-11T04:02:38;44.92;;;10.73;;
54261;SDS011;40174;52.364;6.452;2022-12-11T04:05:07;36.28;;;9.95;;
54261;SDS011;40174;52.364;6.452;2022-12-11T04:07:35;34.85;;;9.02;;
54261;SDS011;40174;52.364;6.452;2022-12-11T04:10:02;38.85;;;10.40;;
54261;SDS011;40174;52.364;6.452;2022-12-11T04:12:29;50.08;;;9.05;;
54261;SDS011;40174;52.364;6.452;2022-12-11T04:14:56;40.47;;;8.80;;
54261;SDS011;40174;52.364;6.452;2022-12-11T04:17:27;36.03;;;9.77;;
54261;SDS011;40174;52.364;6.452;2022-12-11T04:20:13;41.38;;;10.65;;
54261;SDS011;40174;52.364;6.452;2022-12-11T04:22:57;41.22;;;8.70;;
54261;SDS011;40174;52.364;6.452;2022-12-11T04:25:41;38.05;;;8.55;;
54261;SDS011;40174;52.364;6.452;2022-12-11T04:28:08;46.47;;;9.90;;
54261;SDS011;40174;52.364;6.452;2022-12-11T04:30:35;41.70;;;10.45;;
54261;SDS011;40174;52.364;6.452;2022-12-11T04:33:02;34.67;;;9.82;;
54261;SDS011;40174;52.364;6.452;2022-12-11T04:35:30;39.58;;;10.45;;
54261;SDS011;40174;52.364;6.452;2022-12-11T04:37:57;46.30;;;9.55;;
54261;SDS011;40174;52.364;6.452;2022-12-11T04:40:25;34.95;;;8.95;;
54261;SDS011;40174;52.364;6.452;2022-12-11T04:42:51;40.72;;;9.57;;
54261;SDS011;40174;52.364;6.452;2022-12-11T04:45:18;34.50;;;9.27;;
54261;SDS011;40174;52.364;6.452;2022-12-11T04:47:45;37.50;;;9.70;;
54261;SDS011;40174;52.364;6.452;2022-12-11T04:50:12;40.38;;;9.63;;
54261;SDS011;40174;52.364;6.452;2022-12-11T04:52:41;44.20;;;8.57;;
54261;SDS011;40174;52.364;6.452;2022-12-11T04:55:08;44.40;;;9.73;;
54261;SDS011;40174;52.364;6.452;2022-12-11T04:57:36;45.47;;;9.88;;
54261;SDS011;40174;52.364;6.452;2022-12-11T05:00:04;40.50;;;9.23;;
54261;SDS011;40174;52.364;6.452;2022-12-11T05:02:34;36.63;;;9.65;;
54261;SDS011;40174;52.364;6.452;2022-12-11T05:05:01;39.42;;;10.20;;
54261;SDS011;40174;52.364;6.452;2022-12-11T05:07:29;56.65;;;12.30;;
54261;SDS011;40174;52.364;6.452;2022-12-11T05:09:57;45.75;;;10.63;;
54261;SDS011;40174;52.364;6.452;2022-12-11T05:12:24;45.15;;;10.13;;
54261;SDS011;40174;52.364;6.452;2022-12-11T05:14:51;45.33;;;10.30;;
54261;SDS011;40174;52.364;6.452;2022-12-11T05:17:18;44.97;;;11.25;;
54261;SDS011;40174;52.364;6.452;2022-12-11T05:19:45;46.70;;;9.55;;
54261;SDS011;40174;52.364;6.452;2022-12-11T05:22:13;43.13;;;10.10;;
54261;SDS011;40174;52.364;6.452;2022-12-11T05:24:40;47.55;;;10.85;;
54261;SDS011;40174;52.364;6.452;2022-12-11T05:27:08;35.22;;;8.80;;
54261;SDS011;40174;52.364;6.452;2022-12-11T05:29:36;39.90;;;10.07;;
54261;SDS011;40174;52.364;6.452;2022-12-11T05:32:03;44.35;;;9.05;;
54261;SDS011;40174;52.364;6.452;2022-12-11T05:34:29;47.22;;;10.18;;
54261;SDS011;40174;52.364;6.452;2022-12-11T05:36:57;37.08;;;8.77;;
54261;SDS011;40174;52.364;6.452;2022-12-11T05:39:23;39.85;;;9.93;;
54261;SDS011;40174;52.364;6.452;2022-12-11T05:41:50;42.70;;;10.70;;
54261;SDS011;40174;52.364;6.452;2022-12-11T05:44:18;50.22;;;9.82;;
54261;SDS011;40174;52.364;6.452;2022-12-11T05:46:44;36.35;;;8.55;;
54261;SDS011;40174;52.364;6.452;2022-12-11T05:49:11;48.17;;;9.90;;
54261;SDS011;40174;52.364;6.452;2022-12-11T05:51:38;40.63;;;10.38;;
54261;SDS011;40174;52.364;6.452;2022-12-11T05:54:05;44.55;;;10.88;;
54261;SDS011;40174;52.364;6.452;2022-12-11T05:56:32;40.42;;;10.40;;
54261;SDS011;40174;52.364;6.452;2022-12-11T05:59:00;53.10;;;11.05;;
54261;SDS011;40174;52.364;6.452;2022-12-11T06:01:29;49.70;;;10.45;;
54261;SDS011;40174;52.364;6.452;2022-12-11T06:03:57;44.95;;;9.88;;
54261;SDS011;40174;52.364;6.452;2022-12-11T06:06:25;34.53;;;9.85;;
54261;SDS011;40174;52.364;6.452;2022-12-11T06:08:54;39.80;;;10.00;;
54261;SDS011;40174;52.364;6.452;2022-12-11T06:11:22;35.47;;;9.20;;
54261;SDS011;40174;52.364;6.452;2022-12-11T06:13:50;37.63;;;10.07;;
54261;SDS011;40174;52.364;6.452;2022-12-11T06:16:17;45.33;;;11.57;;
54261;SDS011;40174;52.364;6.452;2022-12-11T06:18:45;41.25;;;10.10;;
54261;SDS011;40174;52.364;6.452;2022-12-11T06:21:12;40.83;;;8.90;;
54261;SDS011;40174;52.364;6.452;2022-12-11T06:23:40;49.25;;;10.20;;
54261;SDS011;40174;52.364;6.452;2022-12-11T06:26:07;35.15;;;9.15;;
54261;SDS011;40174;52.364;6.452;2022-12-11T06:28:34;42.22;;;9.75;;
54261;SDS011;40174;52.364;6.452;2022-12-11T06:31:01;45.08;;;9.90;;
54261;SDS011;40174;52.364;6.452;2022-12-11T06:33:29;41.28;;;9.00;;
54261;SDS011;40174;52.364;6.452;2022-12-11T06:35:57;40.97;;;9.10;;
54261;SDS011;40174;52.364;6.452;2022-12-11T06:38:26;34.95;;;9.73;;
54261;SDS011;40174;52.364;6.452;2022-12-11T06:40:53;35.17;;;8.52;;
54261;SDS011;40174;52.364;6.452;2022-12-11T06:43:21;36.83;;;8.85;;
54261;SDS011;40174;52.364;6.452;2022-12-11T06:45:48;32.65;;;7.88;;
54261;SDS011;40174;52.364;6.452;2022-12-11T06:48:14;38.28;;;9.75;;
54261;SDS011;40174;52.364;6.452;2022-12-11T06:50:41;30.45;;;8.40;;
54261;SDS011;40174;52.364;6.452;2022-12-11T06:53:10;38.78;;;8.98;;
54261;SDS011;40174;52.364;6.452;2022-12-11T06:55:37;43.40;;;9.45;;
54261;SDS011;40174;52.364;6.452;2022-12-11T06:58:04;43.65;;;9.10;;
54261;SDS011;40174;52.364;6.452;2022-12-11T07:00:31;35.83;;;7.47;;
54261;SDS011;40174;52.364;6.452;2022-12-11T07:02:57;43.08;;;9.20;;
54261;SDS011;40174;52.364;6.452;2022-12-11T07:05:24;37.17;;;9.57;;
54261;SDS011;40174;52.364;6.452;2022-12-11T07:07:51;38.42;;;8.40;;
54261;SDS011;40174;52.364;6.452;2022-12-11T07:10:20;38.28;;;9.35;;
54261;SDS011;40174;52.364;6.452;2022-12-11T07:12:47;39.47;;;10.35;;
54261;SDS011;40174;52.364;6.452;2022-12-11T07:15:14;44.25;;;9.70;;
54261;SDS011;40174;52.364;6.452;2022-12-11T07:17:40;35.90;;;9.43;;
54261;SDS011;40174;52.364;6.452;2022-12-11T07:20:08;33.53;;;8.68;;
54261;SDS011;40174;52.364;6.452;2022-12-11T07:22:35;35.30;;;7.60;;
54261;SDS011;40174;52.364;6.452;2022-12-11T07:25:01;39.85;;;9.98;;
54261;SDS011;40174;52.364;6.452;2022-12-11T07:27:29;33.60;;;7.85;;
54261;SDS011;40174;52.364;6.452;2022-12-11T07:29:56;37.03;;;9.52;;
54261;SDS011;40174;52.364;6.452;2022-12-11T07:32:23;41.80;;;9.57;;
54261;SDS011;40174;52.364;6.452;2022-12-11T07:34:49;37.60;;;7.80;;
54261;SDS011;40174;52.364;6.452;2022-12-11T07:37:16;38.28;;;8.13;;
54261;SDS011;40174;52.364;6.452;2022-12-11T07:39:43;38.28;;;7.90;;
54261;SDS011;40174;52.364;6.452;2022-12-11T07:42:09;34.65;;;8.98;;
54261;SDS011;40174;52.364;6.452;2022-12-11T07:44:38;29.70;;;7.45;;
54261;SDS011;40174;52.364;6.452;2022-12-11T07:47:04;42.40;;;8.43;;
54261;SDS011;40174;52.364;6.452;2022-12-11T07:49:31;34.17;;;8.25;;
54261;SDS011;40174;52.364;6.452;2022-12-11T07:51:57;32.20;;;8.20;;
54261;SDS011;40174;52.364;6.452;2022-12-11T07:54:24;39.70;;;8.15;;
54261;SDS011;40174;52.364;6.452;2022-12-11T07:56:51;37.05;;;9.48;;
54261;SDS011;40174;52.364;6.452;2022-12-11T07:59:17;37.88;;;9.02;;
54261;SDS011;40174;52.364;6.452;2022-12-11T08:01:46;39.30;;;9.27;;
54261;SDS011;40174;52.364;6.452;2022-12-11T08:04:13;41.60;;;10.10;;
54261;SDS011;40174;52.364;6.452;2022-12-11T08:06:40;40.40;;;9.98;;
54261;SDS011;40174;52.364;6.452;2022-12-11T08:09:07;28.90;;;7.22;;
54261;SDS011;40174;52.364;6.452;2022-12-11T08:11:36;31.50;;;6.78;;
54261;SDS011;40174;52.364;6.452;2022-12-11T08:14:02;38.50;;;7.88;;
54261;SDS011;40174;52.364;6.452;2022-12-11T08:16:31;32.88;;;9.27;;
54261;SDS011;40174;52.364;6.452;2022-12-11T08:18:59;31.15;;;8.10;;
54261;SDS011;40174;52.364;6.452;2022-12-11T08:21:26;40.13;;;9.68;;
54261;SDS011;40174;52.364;6.452;2022-12-11T08:23:53;35.35;;;9.73;;
54261;SDS011;40174;52.364;6.452;2022-12-11T08:26:22;33.17;;;8.45;;
54261;SDS011;40174;52.364;6.452;2022-12-11T08:28:50;33.25;;;8.07;;
54261;SDS011;40174;52.364;6.452;2022-12-11T08:31:17;36.83;;;8.32;;
54261;SDS011;40174;52.364;6.452;2022-12-11T08:33:44;42.40;;;9.73;;
54261;SDS011;40174;52.364;6.452;2022-12-11T08:36:13;39.03;;;8.65;;
54261;SDS011;40174;52.364;6.452;2022-12-11T08:38:41;34.92;;;9.05;;
54261;SDS011;40174;52.364;6.452;2022-12-11T08:41:08;34.17;;;10.23;;
54261;SDS011;40174;52.364;6.452;2022-12-11T08:43:36;36.60;;;9.32;;
54261;SDS011;40174;52.364;6.452;2022-12-11T08:46:04;27.20;;;7.88;;
54261;SDS011;40174;52.364;6.452;2022-12-11T08:48:32;28.40;;;9.15;;
54261;SDS011;40174;52.364;6.452;2022-12-11T08:50:59;44.03;;;10.43;;
54261;SDS011;40174;52.364;6.452;2022-12-11T08:53:28;36.83;;;10.00;;
54261;SDS011;40174;52.364;6.452;2022-12-11T08:55:59;32.97;;;9.27;;
54261;SDS011;40174;52.364;6.452;2022-12-11T08:58:26;29.05;;;9.18;;
54261;SDS011;40174;52.364;6.452;2022-12-11T09:00:53;36.72;;;8.43;;
54261;SDS011;40174;52.364;6.452;2022-12-11T09:03:19;36.28;;;9.10;;
54261;SDS011;40174;52.364;6.452;2022-12-11T09:05:46;39.45;;;9.98;;
54261;SDS011;40174;52.364;6.452;2022-12-11T09:08:13;33.70;;;8.57;;
54261;SDS011;40174;52.364;6.452;2022-12-11T09:10:41;40.40;;;9.32;;
54261;SDS011;40174;52.364;6.452;2022-12-11T09:13:08;35.35;;;8.93;;
54261;SDS011;40174;52.364;6.452;2022-12-11T09:15:34;41.53;;;10.57;;
54261;SDS011;40174;52.364;6.452;2022-12-11T09:18:04;42.42;;;10.43;;
54261;SDS011;40174;52.364;6.452;2022-12-11T09:20:31;42.15;;;8.60;;
54261;SDS011;40174;52.364;6.452;2022-12-11T09:22:58;39.60;;;9.63;;
54261;SDS011;40174;52.364;6.452;2022-12-11T09:25:24;37.80;;;8.55;;
54261;SDS011;40174;52.364;6.452;2022-12-11T09:27:52;32.25;;;8.50;;
54261;SDS011;40174;52.364;6.452;2022-12-11T09:30:19;29.50;;;7.13;;
54261;SDS011;40174;52.364;6.452;2022-12-11T09:32:45;30.20;;;8.13;;
54261;SDS011;40174;52.364;6.452;2022-12-11T09:35:12;37.35;;;9.52;;
54261;SDS011;40174;52.364;6.452;2022-12-11T09:37:39;36.78;;;9.32;;
54261;SDS011;40174;52.364;6.452;2022-12-11T09:40:06;42.88;;;10.48;;
54261;SDS011;40174;52.364;6.452;2022-12-11T09:42:39;40.13;;;10.35;;
54261;SDS011;40174;52.364;6.452;2022-12-11T09:45:16;34.25;;;8.98;;
54261;SDS011;40174;52.364;6.452;2022-12-11T09:47:43;37.22;;;9.80;;
54261;SDS011;40174;52.364;6.452;2022-12-11T09:50:15;46.50;;;10.52;;
54261;SDS011;40174;52.364;6.452;2022-12-11T09:52:50;35.30;;;9.73;;
54261;SDS011;40174;52.364;6.452;2022-12-11T09:55:28;37.75;;;8.88;;
54261;SDS011;40174;52.364;6.452;2022-12-11T09:58:03;29.92;;;7.38;;
54261;SDS011;40174;52.364;6.452;2022-12-11T10:00:40;35.90;;;7.72;;
54261;SDS011;40174;52.364;6.452;2022-12-11T10:06:16;37.85;;;10.32;;
54261;SDS011;40174;52.364;6.452;2022-12-11T10:08:51;38.40;;;9.77;;
54261;SDS011;40174;52.364;6.452;2022-12-11T10:11:33;48.50;;;10.18;;
54261;SDS011;40174;52.364;6.452;2022-12-11T10:14:08;33.30;;;8.55;;
54261;SDS011;40174;52.364;6.452;2022-12-11T10:16:44;45.00;;;9.93;;
54261;SDS011;40174;52.364;6.452;2022-12-11T10:19:13;34.63;;;9.50;;
54261;SDS011;40174;52.364;6.452;2022-12-11T10:21:43;45.70;;;9.82;;
54261;SDS011;40174;52.364;6.452;2022-12-11T10:24:13;36.47;;;8.77;;
54261;SDS011;40174;52.364;6.452;2022-12-11T10:26:45;47.33;;;10.20;;
54261;SDS011;40174;52.364;6.452;2022-12-11T10:29:13;35.20;;;11.63;;
54261;SDS011;40174;52.364;6.452;2022-12-11T10:31:42;32.58;;;7.35;;
54261;SDS011;40174;52.364;6.452;2022-12-11T10:34:15;44.08;;;10.30;;
54261;SDS011;40174;52.364;6.452;2022-12-11T10:36:50;45.85;;;13.48;;
54261;SDS011;40174;52.364;6.452;2022-12-11T10:39:17;42.40;;;11.55;;
54261;SDS011;40174;52.364;6.452;2022-12-11T10:41:44;48.88;;;12.93;;
54261;SDS011;40174;52.364;6.452;2022-12-11T10:44:13;35.20;;;10.07;;
54261;SDS011;40174;52.364;6.452;2022-12-11T10:46:42;40.05;;;11.35;;
54261;SDS011;40174;52.364;6.452;2022-12-11T10:49:20;41.65;;;12.07;;
54261;SDS011;40174;52.364;6.452;2022-12-11T10:51:48;39.35;;;9.80;;
54261;SDS011;40174;52.364;6.452;2022-12-11T10:54:16;38.55;;;10.23;;
54261;SDS011;40174;52.364;6.452;2022-12-11T10:56:54;37.67;;;10.43;;
54261;SDS011;40174;52.364;6.452;2022-12-11T10:59:22;37.65;;;8.88;;
54261;SDS011;40174;52.364;6.452;2022-12-11T11:01:55;34.00;;;9.02;;
54261;SDS011;40174;52.364;6.452;2022-12-11T11:04:26;26.95;;;8.00;;
54261;SDS011;40174;52.364;6.452;2022-12-11T11:07:00;27.33;;;8.02;;
54261;SDS011;40174;52.364;6.452;2022-12-11T11:09:28;29.63;;;8.30;;
54261;SDS011;40174;52.364;6.452;2022-12-11T11:11:55;43.38;;;10.60;;
54261;SDS011;40174;52.364;6.452;2022-12-11T11:14:22;34.50;;;10.20;;
54261;SDS011;40174;52.364;6.452;2022-12-11T11:16:49;31.05;;;8.48;;
54261;SDS011;40174;52.364;6.452;2022-12-11T11:19:19;32.92;;;8.63;;
54261;SDS011;40174;52.364;6.452;2022-12-11T11:21:50;32.30;;;8.95;;
54261;SDS011;40174;52.364;6.452;2022-12-11T11:24:22;33.88;;;10.05;;
54261;SDS011;40174;52.364;6.452;2022-12-11T11:26:51;30.17;;;9.50;;
54261;SDS011;40174;52.364;6.452;2022-12-11T11:29:21;29.85;;;8.95;;
54261;SDS011;40174;52.364;6.452;2022-12-11T11:31:52;31.58;;;8.98;;
54261;SDS011;40174;52.364;6.452;2022-12-11T11:34:19;22.73;;;6.13;;
54261;SDS011;40174;52.364;6.452;2022-12-11T11:36:55;24.38;;;8.07;;
54261;SDS011;40174;52.364;6.452;2022-12-11T11:39:25;26.38;;;7.47;;
54261;SDS011;40174;52.364;6.452;2022-12-11T11:41:57;25.23;;;8.50;;
54261;SDS011;40174;52.364;6.452;2022-12-11T11:44:28;25.92;;;8.40;;
54261;SDS011;40174;52.364;6.452;2022-12-11T11:47:01;28.55;;;8.05;;
54261;SDS011;40174;52.364;6.452;2022-12-11T11:49:40;33.90;;;10.40;;
54261;SDS011;40174;52.364;6.452;2022-12-11T11:52:16;28.33;;;7.07;;
54261;SDS011;40174;52.364;6.452;2022-12-11T11:57:22;28.52;;;8.38;;
54261;SDS011;40174;52.364;6.452;2022-12-11T11:59:55;22.63;;;7.22;;
54261;SDS011;40174;52.364;6.452;2022-12-11T12:02:37;27.58;;;8.48;;
54261;SDS011;40174;52.364;6.452;2022-12-11T12:05:08;25.85;;;6.88;;
54261;SDS011;40174;52.364;6.452;2022-12-11T12:07:39;29.38;;;8.10;;
54261;SDS011;40174;52.364;6.452;2022-12-11T12:10:14;28.70;;;8.35;;
54261;SDS011;40174;52.364;6.452;2022-12-11T12:12:48;25.95;;;7.03;;
54261;SDS011;40174;52.364;6.452;2022-12-11T12:15:28;25.73;;;8.20;;
54261;SDS011;40174;52.364;6.452;2022-12-11T12:18:04;31.35;;;8.80;;
54261;SDS011;40174;52.364;6.452;2022-12-11T12:20:40;27.27;;;8.55;;
54261;SDS011;40174;52.364;6.452;2022-12-11T12:23:24;24.77;;;8.20;;
54261;SDS011;40174;52.364;6.452;2022-12-11T12:26:02;23.05;;;7.45;;
54261;SDS011;40174;52.364;6.452;2022-12-11T12:28:36;30.88;;;9.48;;
54261;SDS011;40174;52.364;6.452;2022-12-11T12:31:12;26.15;;;8.20;;
54261;SDS011;40174;52.364;6.452;2022-12-11T12:33:48;25.50;;;7.70;;
54261;SDS011;40174;52.364;6.452;2022-12-11T12:36:26;24.63;;;7.78;;
54261;SDS011;40174;52.364;6.452;2022-12-11T12:39:02;29.45;;;8.57;;
54261;SDS011;40174;52.364;6.452;2022-12-11T12:41:40;22.48;;;8.05;;
54261;SDS011;40174;52.364;6.452;2022-12-11T12:44:27;24.95;;;8.38;;
54261;SDS011;40174;52.364;6.452;2022-12-11T12:47:07;26.60;;;7.72;;
54261;SDS011;40174;52.364;6.452;2022-12-11T12:49:39;30.02;;;7.88;;
54261;SDS011;40174;52.364;6.452;2022-12-11T12:52:10;27.98;;;8.02;;
54261;SDS011;40174;52.364;6.452;2022-12-11T12:54:40;24.15;;;6.78;;
54261;SDS011;40174;52.364;6.452;2022-12-11T12:57:31;25.85;;;7.55;;
54261;SDS011;40174;52.364;6.452;2022-12-11T12:59:59;21.25;;;7.15;;
54261;SDS011;40174;52.364;6.452;2022-12-11T13:02:26;27.73;;;7.80;;
54261;SDS011;40174;52.364;6.452;2022-12-11T13:04:57;23.45;;;7.90;;
54261;SDS011;40174;52.364;6.452;2022-12-11T13:07:26;24.60;;;7.60;;
54261;SDS011;40174;52.364;6.452;2022-12-11T13:09:59;27.95;;;8.63;;
54261;SDS011;40174;52.364;6.452;2022-12-11T13:12:31;30.00;;;7.60;;
54261;SDS011;40174;52.364;6.452;2022-12-11T13:15:31;23.25;;;7.15;;
54261;SDS011;40174;52.364;6.452;2022-12-11T13:18:00;20.77;;;6.68;;
54261;SDS011;40174;52.364;6.452;2022-12-11T13:20:29;22.63;;;7.63;;
54261;SDS011;40174;52.364;6.452;2022-12-11T13:25:54;23.33;;;7.32;;
54261;SDS011;40174;52.364;6.452;2022-12-11T13:28:30;20.50;;;7.13;;
54261;SDS011;40174;52.364;6.452;2022-12-11T13:34:07;25.30;;;7.90;;
54261;SDS011;40174;52.364;6.452;2022-12-11T13:36:44;24.63;;;7.82;;
54261;SDS011;40174;52.364;6.452;2022-12-11T13:39:15;20.10;;;7.82;;
54261;SDS011;40174;52.364;6.452;2022-12-11T13:41:46;27.08;;;8.50;;
54261;SDS011;40174;52.364;6.452;2022-12-11T13:44:18;22.13;;;6.53;;
54261;SDS011;40174;52.364;6.452;2022-12-11T13:46:49;20.92;;;7.20;;
54261;SDS011;40174;52.364;6.452;2022-12-11T13:49:20;21.83;;;7.22;;
54261;SDS011;40174;52.364;6.452;2022-12-11T13:51:55;22.25;;;7.78;;
54261;SDS011;40174;52.364;6.452;2022-12-11T13:54:24;31.60;;;7.95;;
54261;SDS011;40174;52.364;6.452;2022-12-11T13:56:54;22.17;;;6.70;;
54261;SDS011;40174;52.364;6.452;2022-12-11T13:59:27;24.63;;;9.23;;
54261;SDS011;40174;52.364;6.452;2022-12-11T14:02:03;23.50;;;7.30;;
54261;SDS011;40174;52.364;6.452;2022-12-11T14:04:37;27.63;;;9.15;;
54261;SDS011;40174;52.364;6.452;2022-12-11T14:07:05;27.52;;;8.65;;
54261;SDS011;40174;52.364;6.452;2022-12-11T14:09:34;26.45;;;8.88;;
54261;SDS011;40174;52.364;6.452;2022-12-11T14:12:12;25.77;;;8.30;;
54261;SDS011;40174;52.364;6.452;2022-12-11T14:14:44;19.08;;;7.45;;
54261;SDS011;40174;52.364;6.452;2022-12-11T14:17:16;24.75;;;8.82;;
54261;SDS011;40174;52.364;6.452;2022-12-11T14:19:47;22.85;;;8.60;;
54261;SDS011;40174;52.364;6.452;2022-12-11T14:22:15;30.50;;;8.68;;
54261;SDS011;40174;52.364;6.452;2022-12-11T14:24:47;23.95;;;7.60;;
54261;SDS011;40174;52.364;6.452;2022-12-11T14:27:17;22.88;;;7.22;;
54261;SDS011;40174;52.364;6.452;2022-12-11T14:29:45;34.42;;;9.10;;
54261;SDS011;40174;52.364;6.452;2022-12-11T14:34:44;21.48;;;6.65;;
54261;SDS011;40174;52.364;6.452;2022-12-11T14:37:15;23.42;;;9.13;;
54261;SDS011;40174;52.364;6.452;2022-12-11T14:39:46;22.25;;;8.23;;
54261;SDS011;40174;52.364;6.452;2022-12-11T14:42:22;26.15;;;7.82;;
54261;SDS011;40174;52.364;6.452;2022-12-11T14:44:54;25.65;;;7.53;;
54261;SDS011;40174;52.364;6.452;2022-12-11T14:47:24;22.63;;;7.60;;
54261;SDS011;40174;52.364;6.452;2022-12-11T14:49:54;21.48;;;9.10;;
54261;SDS011;40174;52.364;6.452;2022-12-11T14:52:26;23.50;;;8.23;;
54261;SDS011;40174;52.364;6.452;2022-12-11T14:55:00;25.42;;;8.05;;
54261;SDS011;40174;52.364;6.452;2022-12-11T14:57:32;21.67;;;7.75;;
54261;SDS011;40174;52.364;6.452;2022-12-11T15:00:00;24.10;;;8.70;;
54261;SDS011;40174;52.364;6.452;2022-12-11T15:02:28;28.83;;;7.35;;
54261;SDS011;40174;52.364;6.452;2022-12-11T15:05:02;27.35;;;7.57;;